Time;durP1;ratioP1;P1;durP2;ratioP2;P2;SDS_P1;SDS_P2;PMS_P1;PMS_P2;Temp;Humidity;BMP_temperature;BMP_pressure;BME280_temperature;BME280_humidity;BME280_pressure;Samples;Min_cycle;Max_cycle;Signal;HPM_P1;HPM_P2
2023/03/28 00:00:57;;;;;;;;;;;1.60;99.90;;;;;;5049665;28;19920;-62
2023/03/28 00:03:24;;;;;;;;;;;1.50;99.90;;;;;;5049809;28;19925;-61
2023/03/28 00:05:54;;;;;;;;;;;1.40;99.90;;;;;;5049619;28;19916;-62
2023/03/28 00:08:19;;;;;;;;;;;1.40;99.90;;;;;;5030699;28;19923;-62
2023/03/28 00:10:45;;;;;;;;;;;1.40;99.90;;;;;;5049075;28;20425;-61
2023/03/28 00:13:12;;;;;;;;;;;1.40;99.90;;;;;;5050764;28;20003;-62
2023/03/28 00:15:39;;;;;;;;;;;1.40;99.90;;;;;;5053679;28;19970;-62
2023/03/28 00:18:04;;;;;;;;;;;1.40;99.90;;;;;;5052575;28;19962;-62
2023/03/28 00:20:30;;;;;;;;;;;1.40;99.90;;;;;;5052957;28;19921;-62
2023/03/28 00:22:56;;;;;;;;;;;1.40;99.90;;;;;;5052748;28;20479;-62
2023/03/28 00:25:22;;;;;;;;;;;1.40;99.90;;;;;;5053338;28;19917;-62
2023/03/28 00:27:48;;;;;;;;;;;1.40;99.90;;;;;;5022527;28;20299;-62
2023/03/28 00:30:13;;;;;;;;;;;1.40;99.90;;;;;;5058154;28;19923;-62
2023/03/28 00:32:39;;;;;;;;;;;1.50;99.90;;;;;;5055254;28;20202;-62
2023/03/28 00:35:05;;;;;;;;;;;1.50;99.90;;;;;;5056631;28;19917;-62
2023/03/28 00:37:30;;;;;;;;;;;1.50;99.90;;;;;;5002624;28;20357;-62
2023/03/28 00:39:56;;;;;;;;;;;1.50;99.90;;;;;;5039913;28;20385;-61
2023/03/28 00:42:22;;;;;;;;;;;1.40;99.90;;;;;;5034955;28;20297;-62
2023/03/28 00:44:50;;;;;;;;;;;1.40;99.90;;;;;;5033083;28;19921;-62
2023/03/28 00:47:26;;;;;;;;;;;1.40;99.90;;;;;;5036057;28;19929;-62
2023/03/28 00:50:12;;;;;;;;;;;1.40;99.90;;;;;;5046003;28;19927;-61
2023/03/28 00:52:44;;;;;;;;;;;1.40;99.90;;;;;;5058022;28;20392;-61
2023/03/28 00:55:12;;;;;;;;;;;1.40;99.90;;;;;;5053439;28;20289;-62
2023/03/28 00:57:38;;;;;;;;;;;1.40;99.90;;;;;;5038889;28;20294;-62
2023/03/28 01:00:06;;;;;;;;;;;1.40;99.90;;;;;;5052116;28;19917;-62
2023/03/28 01:02:31;;;;;;;;;;;1.40;99.90;;;;;;5043396;28;20011;-62
2023/03/28 01:04:59;;;;;;;;;;;1.40;99.90;;;;;;5032796;28;20063;-62
2023/03/28 01:07:28;;;;;;;;;;;1.40;99.90;;;;;;5032205;28;19917;-61
2023/03/28 01:09:54;;;;;;;;;;;1.40;99.90;;;;;;5032272;28;19917;-62
2023/03/28 01:12:20;;;;;;;;;;;1.40;99.90;;;;;;5058653;28;19916;-62
2023/03/28 01:14:46;;;;;;;;;;;1.40;99.90;;;;;;5062096;28;19959;-61
2023/03/28 01:17:12;;;;;;;;;;;1.40;99.90;;;;;;5052003;28;19995;-62
2023/03/28 01:19:46;;;;;;;;;;;1.30;99.90;;;;;;5050198;28;20008;-61
2023/03/28 01:22:28;;;;;;;;;;;1.30;99.90;;;;;;5052150;28;19916;-62
2023/03/28 01:24:54;;;;;;;;;;;1.30;99.90;;;;;;5052035;28;19970;-62
2023/03/28 01:27:19;;;;;;;;;;;1.30;99.90;;;;;;5051491;28;19916;-62
2023/03/28 01:30:09;;;;;;;;;;;1.30;99.90;;;;;;5051267;28;19920;-62
2023/03/28 01:32:50;;;;;;;;;;;1.20;99.90;;;;;;5052083;28;20006;-62
2023/03/28 01:35:27;;;;;;;;;;;1.20;99.90;;;;;;5052236;28;19966;-61
2023/03/28 01:38:16;;;;;;;;;;;1.20;99.90;;;;;;5051203;28;19921;-62
2023/03/28 01:40:47;;;;;;;;;;;1.20;99.90;;;;;;5031957;28;19917;-61
2023/03/28 01:43:25;;;;;;;;;;;1.20;99.90;;;;;;5066345;28;19920;-61
2023/03/28 01:46:12;;;;;;;;;;;1.20;99.90;;;;;;5071640;28;19939;-62
2023/03/28 01:48:38;;;;;;;;;;;1.10;99.90;;;;;;5070888;28;20009;-61
2023/03/28 01:51:06;;;;;;;;;;;1.10;99.90;;;;;;5063196;28;19986;-61
2023/03/28 01:53:41;;;;;;;;;;;1.00;99.90;;;;;;5051649;28;19916;-62
2023/03/28 01:56:21;;;;;;;;;;;1.00;99.90;;;;;;5051632;28;19963;-62
2023/03/28 01:58:49;;;;;;;;;;;1.00;99.90;;;;;;5050962;28;19927;-62
2023/03/28 02:01:21;;;;;;;;;;;0.90;99.90;;;;;;5051310;28;19928;-62
2023/03/28 02:03:50;;;;;;;;;;;0.90;99.90;;;;;;5033333;28;19924;-62
2023/03/28 02:06:16;;;;;;;;;;;0.90;99.90;;;;;;5051515;28;19917;-62
2023/03/28 02:08:43;;;;;;;;;;;0.90;99.90;;;;;;5050352;28;19917;-63
2023/03/28 02:11:09;;;;;;;;;;;0.80;99.90;;;;;;5049509;28;20022;-62
2023/03/28 02:13:54;;;;;;;;;;;0.80;99.90;;;;;;5033017;28;20402;-62
2023/03/28 02:16:21;;;;;;;;;;;0.80;99.90;;;;;;5051025;28;19979;-62
2023/03/28 02:18:53;;;;;;;;;;;0.80;99.90;;;;;;5050176;28;19991;-62
2023/03/28 02:21:20;;;;;;;;;;;0.80;99.90;;;;;;5050568;28;19920;-60
2023/03/28 02:23:47;;;;;;;;;;;0.80;99.90;;;;;;5051307;28;19935;-62
2023/03/28 02:26:13;;;;;;;;;;;0.80;99.90;;;;;;5051269;28;19916;-62
2023/03/28 02:28:40;;;;;;;;;;;0.70;99.90;;;;;;5050188;28;20409;-62
2023/03/28 02:31:06;;;;;;;;;;;0.70;99.90;;;;;;5050814;28;19923;-62
2023/03/28 02:33:31;;;;;;;;;;;0.80;99.90;;;;;;5051247;28;19929;-61
2023/03/28 02:36:01;;;;;;;;;;;0.80;99.90;;;;;;5050211;28;19959;-62
2023/03/28 02:38:47;;;;;;;;;;;0.80;99.90;;;;;;5050245;28;20015;-62
2023/03/28 02:41:22;;;;;;;;;;;0.80;99.90;;;;;;5051279;28;19916;-62
2023/03/28 02:44:07;;;;;;;;;;;0.80;99.90;;;;;;5031763;28;20382;-62
2023/03/28 02:46:52;;;;;;;;;;;0.80;99.90;;;;;;5030396;28;19921;-62
2023/03/28 02:49:20;;;;;;;;;;;0.80;99.90;;;;;;5029853;28;19917;-62
2023/03/28 02:51:49;;;;;;;;;;;0.80;99.90;;;;;;5030845;28;20596;-62
2023/03/28 02:54:34;;;;;;;;;;;0.80;99.90;;;;;;5013143;28;20229;-62
2023/03/28 02:57:00;;;;;;;;;;;0.80;99.90;;;;;;5039324;28;20441;-62
2023/03/28 02:59:45;;;;;;;;;;;0.80;99.90;;;;;;5032273;28;19917;-62
2023/03/28 03:02:15;;;;;;;;;;;0.80;99.90;;;;;;5040990;28;19931;-61
2023/03/28 03:04:40;;;;;;;;;;;0.80;99.90;;;;;;5041425;28;19920;-62
2023/03/28 03:07:07;;;;;;;;;;;0.80;99.90;;;;;;5035878;28;19920;-62
2023/03/28 03:09:33;;;;;;;;;;;0.80;99.90;;;;;;5037806;28;19920;-62
2023/03/28 03:11:59;;;;;;;;;;;0.70;99.90;;;;;;5039588;28;19986;-62
2023/03/28 03:14:24;;;;;;;;;;;0.70;99.90;;;;;;5048198;28;19917;-62
2023/03/28 03:16:51;;;;;;;;;;;0.70;99.90;;;;;;5050336;28;20474;-62
2023/03/28 03:19:17;;;;;;;;;;;0.70;99.90;;;;;;5037182;28;19921;-61
2023/03/28 03:21:43;;;;;;;;;;;0.70;99.90;;;;;;5029688;28;20398;-60
2023/03/28 03:24:08;;;;;;;;;;;0.70;99.90;;;;;;5030183;28;19933;-62
2023/03/28 03:26:34;;;;;;;;;;;0.70;99.90;;;;;;5030372;28;19971;-62
2023/03/28 03:29:00;;;;;;;;;;;0.60;99.90;;;;;;5029331;28;19924;-61
2023/03/28 03:31:25;;;;;;;;;;;0.60;99.90;;;;;;5041281;28;20010;-62
2023/03/28 03:33:51;;;;;;;;;;;0.60;99.90;;;;;;5049898;28;19920;-62
2023/03/28 03:36:17;;;;;;;;;;;0.60;99.90;;;;;;5049742;28;19970;-62
2023/03/28 03:38:43;;;;;;;;;;;0.60;99.90;;;;;;5049130;28;20153;-62
2023/03/28 03:41:08;;;;;;;;;;;0.50;99.90;;;;;;5049725;28;19917;-61
2023/03/28 03:43:34;;;;;;;;;;;0.60;99.90;;;;;;5050002;28;19921;-63
2023/03/28 03:46:01;;;;;;;;;;;0.60;99.90;;;;;;5031935;28;19925;-62
2023/03/28 03:48:26;;;;;;;;;;;0.60;99.90;;;;;;5052582;28;20435;-62
2023/03/28 03:50:52;;;;;;;;;;;0.60;99.90;;;;;;5059825;28;19916;-62
2023/03/28 03:53:17;;;;;;;;;;;0.50;99.90;;;;;;5073674;28;19922;-62
2023/03/28 03:55:43;;;;;;;;;;;0.50;99.90;;;;;;5074285;28;20197;-62
2023/03/28 03:58:08;;;;;;;;;;;0.50;99.90;;;;;;5056914;28;20267;-62
2023/03/28 04:00:36;;;;;;;;;;;0.50;99.90;;;;;;5035945;28;19924;-61
2023/03/28 04:03:02;;;;;;;;;;;0.50;99.90;;;;;;5043441;28;20363;-62
2023/03/28 04:05:27;;;;;;;;;;;0.40;99.90;;;;;;5037388;28;19960;-62
2023/03/28 04:07:53;;;;;;;;;;;0.40;99.90;;;;;;5035580;28;19924;-62
2023/03/28 04:10:18;;;;;;;;;;;0.40;99.90;;;;;;5053527;28;20007;-62
2023/03/28 04:12:47;;;;;;;;;;;0.40;99.90;;;;;;5035643;28;20023;-62
2023/03/28 04:15:12;;;;;;;;;;;0.40;99.90;;;;;;5053866;28;19916;-62
2023/03/28 04:17:39;;;;;;;;;;;0.50;99.90;;;;;;5034586;28;20446;-62
2023/03/28 04:20:10;;;;;;;;;;;0.50;99.90;;;;;;5051857;28;19920;-62
2023/03/28 04:22:36;;;;;;;;;;;0.50;99.90;;;;;;5053701;28;19921;-61
2023/03/28 04:25:02;;;;;;;;;;;0.50;99.90;;;;;;5042005;28;20559;-62
2023/03/28 04:27:30;;;;;;;;;;;0.50;99.90;;;;;;5053248;28;20261;-60
2023/03/28 04:29:56;;;;;;;;;;;0.50;99.90;;;;;;5041361;28;20441;-62
2023/03/28 04:32:23;;;;;;;;;;;0.50;99.90;;;;;;5033457;28;20067;-62
2023/03/28 04:34:49;;;;;;;;;;;0.50;99.90;;;;;;5033420;28;19917;-61
2023/03/28 04:37:16;;;;;;;;;;;0.50;99.90;;;;;;5015593;28;20004;-61
2023/03/28 04:39:43;;;;;;;;;;;0.40;99.90;;;;;;5032000;28;19921;-62
2023/03/28 04:42:08;;;;;;;;;;;0.40;99.90;;;;;;5046024;28;19995;-61
2023/03/28 04:44:34;;;;;;;;;;;0.40;99.90;;;;;;5052891;28;20058;-61
2023/03/28 04:47:00;;;;;;;;;;;0.40;99.90;;;;;;5052958;28;19916;-61
2023/03/28 04:49:25;;;;;;;;;;;0.40;99.90;;;;;;5051772;28;19917;-61
2023/03/28 04:51:51;;;;;;;;;;;0.40;99.90;;;;;;5053196;28;20462;-61
2023/03/28 04:54:17;;;;;;;;;;;0.40;99.90;;;;;;5052816;28;20355;-61
2023/03/28 04:56:48;;;;;;;;;;;0.50;99.90;;;;;;5056600;28;19922;-61
2023/03/28 04:59:14;;;;;;;;;;;0.50;99.90;;;;;;5070682;28;19920;-60
2023/03/28 05:01:40;;;;;;;;;;;0.50;99.90;;;;;;5072566;28;19995;-61
2023/03/28 05:04:06;;;;;;;;;;;0.50;99.90;;;;;;5069442;28;20100;-61
2023/03/28 05:06:32;;;;;;;;;;;0.60;99.90;;;;;;5043559;28;19924;-60
2023/03/28 05:08:57;;;;;;;;;;;0.70;99.90;;;;;;5040641;28;19916;-61
2023/03/28 05:11:23;;;;;;;;;;;0.70;99.90;;;;;;5052563;28;20290;-62
2023/03/28 05:13:48;;;;;;;;;;;0.70;99.90;;;;;;5040396;28;20337;-61
2023/03/28 05:16:14;;;;;;;;;;;0.80;99.90;;;;;;5032341;28;19917;-60
2023/03/28 05:18:39;;;;;;;;;;;0.80;99.90;;;;;;5031870;28;19920;-61
2023/03/28 05:21:06;;;;;;;;;;;0.80;99.90;;;;;;5032016;28;20298;-61
2023/03/28 05:23:31;;;;;;;;;;;0.80;99.90;;;;;;5033246;28;19921;-61
2023/03/28 05:25:57;;;;;;;;;;;0.80;99.90;;;;;;5048429;28;20019;-61
2023/03/28 05:28:23;;;;;;;;;;;0.80;99.90;;;;;;5040188;28;19952;-62
2023/03/28 05:30:49;;;;;;;;;;;0.80;99.90;;;;;;5051498;28;20420;-61
2023/03/28 05:33:15;;;;;;;;;;;0.90;99.90;;;;;;5038501;28;20008;-60
2023/03/28 05:35:40;;;;;;;;;;;1.00;99.90;;;;;;5031923;28;19917;-60
2023/03/28 05:38:06;;;;;;;;;;;1.00;99.90;;;;;;5031614;28;19921;-60
2023/03/28 05:40:32;;;;;;;;;;;1.10;99.90;;;;;;5032178;28;19917;-61
2023/03/28 05:42:57;;;;;;;;;;;1.10;99.90;;;;;;5051128;28;19921;-61
2023/03/28 05:45:23;;;;;;;;;;;1.20;99.90;;;;;;5041391;28;19956;-61
2023/03/28 05:47:53;;;;;;;;;;;1.20;99.90;;;;;;5040585;28;19921;-61
2023/03/28 05:50:19;;;;;;;;;;;1.30;99.90;;;;;;5040957;28;19917;-60
2023/03/28 05:52:45;;;;;;;;;;;1.40;99.90;;;;;;5051911;28;19917;-61
2023/03/28 05:55:10;;;;;;;;;;;1.50;99.90;;;;;;5035971;28;20386;-61
2023/03/28 05:57:35;;;;;;;;;;;1.60;99.90;;;;;;5030706;28;20276;-62
2023/03/28 06:00:03;;;;;;;;;;;1.80;99.90;;;;;;5031547;28;19917;-60
2023/03/28 06:02:32;;;;;;;;;;;1.90;99.90;;;;;;5055990;28;19928;-62
2023/03/28 06:04:58;;;;;;;;;;;2.00;99.90;;;;;;5071533;28;19917;-59
2023/03/28 06:07:24;;;;;;;;;;;2.10;99.90;;;;;;5046985;28;19921;-61
2023/03/28 06:09:50;;;;;;;;;;;2.10;99.90;;;;;;5045159;28;20393;-61
2023/03/28 06:12:16;;;;;;;;;;;2.10;99.90;;;;;;5045349;28;19921;-60
2023/03/28 06:14:41;;;;;;;;;;;2.20;99.90;;;;;;5043290;28;19917;-61
2023/03/28 06:17:07;;;;;;;;;;;2.20;99.90;;;;;;5047128;28;19916;-60
2023/03/28 06:19:32;;;;;;;;;;;2.20;99.90;;;;;;5031697;28;19963;-61
2023/03/28 06:21:58;;;;;;;;;;;2.20;99.90;;;;;;5055527;28;19960;-60
2023/03/28 06:24:23;;;;;;;;;;;2.40;99.90;;;;;;5049114;28;19925;-61
2023/03/28 06:26:49;;;;;;;;;;;2.80;99.90;;;;;;5051269;28;19921;-61
2023/03/28 06:29:15;;;;;;;;;;;3.30;99.90;;;;;;5043388;28;20340;-61
2023/03/28 06:31:40;;;;;;;;;;;3.60;99.90;;;;;;5031325;28;19928;-61
2023/03/28 06:34:06;;;;;;;;;;;3.60;99.90;;;;;;5051649;28;20448;-61
2023/03/28 06:36:31;;;;;;;;;;;3.50;99.90;;;;;;5045585;28;20390;-61
2023/03/28 06:38:57;;;;;;;;;;;3.40;99.90;;;;;;5022356;28;19983;-60
2023/03/28 06:41:23;;;;;;;;;;;3.40;99.90;;;;;;5043474;28;19927;-61
2023/03/28 06:43:48;;;;;;;;;;;3.40;99.90;;;;;;5044920;28;19920;-61
2023/03/28 06:46:15;;;;;;;;;;;3.40;99.90;;;;;;5042208;28;19979;-61
2023/03/28 06:48:41;;;;;;;;;;;3.40;99.90;;;;;;5041601;28;19965;-61
2023/03/28 06:51:06;;;;;;;;;;;3.40;99.90;;;;;;5042837;28;19920;-61
2023/03/28 06:53:32;;;;;;;;;;;3.40;99.90;;;;;;5041973;28;19923;-62
2023/03/28 06:55:58;;;;;;;;;;;3.40;99.90;;;;;;5039343;28;19959;-61
2023/03/28 06:58:24;;;;;;;;;;;3.40;99.90;;;;;;5044322;28;19917;-61
2023/03/28 07:00:50;;;;;;;;;;;3.50;99.90;;;;;;5044977;28;19928;-61
2023/03/28 07:03:16;;;;;;;;;;;3.50;99.90;;;;;;5044557;28;20087;-60
2023/03/28 07:05:42;;;;;;;;;;;3.50;99.90;;;;;;5036153;28;20011;-62
2023/03/28 07:08:09;;;;;;;;;;;3.60;99.90;;;;;;5038843;28;19917;-61
2023/03/28 07:10:35;;;;;;;;;;;3.60;99.90;;;;;;5043975;28;20133;-59
2023/03/28 07:13:01;;;;;;;;;;;3.70;99.90;;;;;;5043762;28;19928;-60
2023/03/28 07:15:26;;;;;;;;;;;3.80;99.90;;;;;;5024556;28;19920;-59
2023/03/28 07:17:52;;;;;;;;;;;3.80;99.90;;;;;;5042584;28;19942;-59
2023/03/28 07:20:19;;;;;;;;;;;3.80;99.90;;;;;;5045428;28;20025;-56
2023/03/28 07:22:44;;;;;;;;;;;3.90;99.90;;;;;;5045120;28;20318;-59
2023/03/28 07:25:10;;;;;;;;;;;3.90;99.90;;;;;;5043603;28;20277;-56
2023/03/28 07:27:36;;;;;;;;;;;3.90;99.90;;;;;;5041104;28;19924;-57
2023/03/28 07:30:01;;;;;;;;;;;3.90;99.90;;;;;;5042400;28;19916;-57
2023/03/28 07:32:27;;;;;;;;;;;4.00;99.90;;;;;;5043504;28;20377;-59
2023/03/28 07:34:52;;;;;;;;;;;4.00;99.90;;;;;;5043703;28;20425;-59
2023/03/28 07:37:18;;;;;;;;;;;4.00;99.90;;;;;;5043876;28;19921;-59
2023/03/28 07:39:43;;;;;;;;;;;4.20;99.90;;;;;;5043109;28;20023;-59
2023/03/28 07:42:09;;;;;;;;;;;4.20;99.90;;;;;;5044051;28;20400;-58
2023/03/28 07:44:35;;;;;;;;;;;4.30;99.90;;;;;;5044523;28;20024;-59
2023/03/28 07:47:00;;;;;;;;;;;4.30;99.90;;;;;;5042705;28;19999;-59
2023/03/28 07:49:26;;;;;;;;;;;4.30;99.90;;;;;;5043126;28;19931;-58
2023/03/28 07:51:51;;;;;;;;;;;4.40;99.90;;;;;;5043858;28;20394;-57
2023/03/28 07:54:17;;;;;;;;;;;4.50;99.90;;;;;;5043261;28;19971;-58
2023/03/28 07:56:46;;;;;;;;;;;4.40;99.90;;;;;;5044624;28;19917;-58
2023/03/28 07:59:12;;;;;;;;;;;4.50;99.90;;;;;;5042601;28;20568;-59
2023/03/28 08:01:42;;;;;;;;;;;4.60;99.90;;;;;;5044033;28;19931;-59
2023/03/28 08:04:07;;;;;;;;;;;4.70;99.90;;;;;;5044095;28;19925;-59
2023/03/28 08:06:36;;;;;;;;;;;4.90;99.90;;;;;;5045604;28;20381;-59
2023/03/28 08:09:06;;;;;;;;;;;5.10;99.90;;;;;;5043327;28;20514;-59
2023/03/28 08:11:33;;;;;;;;;;;5.10;99.90;;;;;;5043638;28;20358;-58
2023/03/28 08:13:59;;;;;;;;;;;5.30;99.90;;;;;;5043852;28;19917;-60
2023/03/28 08:16:25;;;;;;;;;;;5.40;99.90;;;;;;5043473;28;19917;-60
2023/03/28 08:18:50;;;;;;;;;;;5.50;99.90;;;;;;5039334;28;20471;-59
2023/03/28 08:21:16;;;;;;;;;;;5.60;99.90;;;;;;5037435;28;19929;-59
2023/03/28 08:23:43;;;;;;;;;;;5.70;99.90;;;;;;5037854;28;20429;-59
2023/03/28 08:26:09;;;;;;;;;;;5.80;99.90;;;;;;5040140;28;19920;-60
2023/03/28 08:28:35;;;;;;;;;;;5.90;99.90;;;;;;5042973;28;19927;-60
2023/03/28 08:31:02;;;;;;;;;;;5.90;99.90;;;;;;5039339;28;20063;-59
2023/03/28 08:33:27;;;;;;;;;;;5.90;99.90;;;;;;5042982;28;19923;-59
2023/03/28 08:35:54;;;;;;;;;;;5.90;99.90;;;;;;5045158;28;19917;-58
2023/03/28 08:38:20;;;;;;;;;;;5.90;99.90;;;;;;5045469;28;20412;-59
2023/03/28 08:40:58;;;;;;;;;;;6.00;99.90;;;;;;5043547;28;19917;-59
2023/03/28 08:43:24;;;;;;;;;;;6.00;99.90;;;;;;5021669;28;20442;-59
2023/03/28 08:45:54;;;;;;;;;;;6.10;99.90;;;;;;5040274;28;20004;-58
2023/03/28 08:48:26;;;;;;;;;;;6.10;99.90;;;;;;5039793;28;19927;-58
2023/03/28 08:50:59;;;;;;;;;;;6.20;99.90;;;;;;5035969;28;19928;-58
2023/03/28 08:53:26;;;;;;;;;;;6.20;99.90;;;;;;5042530;28;19936;-59
2023/03/28 08:55:53;;;;;;;;;;;6.20;99.90;;;;;;5044776;28;19939;-58
2023/03/28 08:58:20;;;;;;;;;;;6.30;99.90;;;;;;5040275;28;20266;-59
2023/03/28 09:00:47;;;;;;;;;;;6.30;99.90;;;;;;5042171;28;19925;-59
2023/03/28 09:03:15;;;;;;;;;;;6.30;99.90;;;;;;5041116;28;19929;-60
2023/03/28 09:05:50;;;;;;;;;;;6.30;99.90;;;;;;5018475;28;19917;-60
2023/03/28 09:08:22;;;;;;;;;;;6.30;99.90;;;;;;5038638;28;19916;-59
2023/03/28 09:10:56;;;;;;;;;;;6.40;99.90;;;;;;5037068;28;19917;-60
2023/03/28 09:13:42;;;;;;;;;;;6.40;99.90;;;;;;5041712;28;20047;-59
2023/03/28 09:16:15;;;;;;;;;;;6.40;99.90;;;;;;5038629;28;20011;-58
2023/03/28 09:18:53;;;;;;;;;;;6.50;99.90;;;;;;5043573;28;20485;-60
2023/03/28 09:21:37;;;;;;;;;;;6.60;99.90;;;;;;5039536;28;19924;-60
2023/03/28 09:24:06;;;;;;;;;;;6.80;99.90;;;;;;5040822;28;20279;-60
2023/03/28 09:26:57;;;;;;;;;;;6.90;99.90;;;;;;5039191;28;19917;-59
2023/03/28 09:29:24;;;;;;;;;;;6.90;99.90;;;;;;5035521;28;20067;-59
2023/03/28 09:31:53;;;;;;;;;;;6.80;99.90;;;;;;5040024;28;19959;-60
2023/03/28 09:34:21;;;;;;;;;;;6.80;99.90;;;;;;5040457;28;19943;-59
2023/03/28 09:36:48;;;;;;;;;;;6.80;99.90;;;;;;5041723;28;19947;-60
2023/03/28 09:39:32;;;;;;;;;;;6.90;99.90;;;;;;5038613;28;20039;-59
2023/03/28 09:42:06;;;;;;;;;;;6.80;99.90;;;;;;5038323;28;20301;-60
2023/03/28 09:44:36;;;;;;;;;;;6.80;99.90;;;;;;5021187;28;19921;-59
2023/03/28 09:47:05;;;;;;;;;;;6.90;99.90;;;;;;5043779;28;19917;-58
2023/03/28 09:49:30;;;;;;;;;;;6.80;99.90;;;;;;5044924;28;20294;-59
2023/03/28 09:51:56;;;;;;;;;;;6.90;99.90;;;;;;5044653;28;19920;-59
2023/03/28 09:54:27;;;;;;;;;;;6.90;99.90;;;;;;5046476;28;20378;-60
2023/03/28 09:56:57;;;;;;;;;;;6.90;99.60;;;;;;5026197;28;20337;-59
2023/03/28 09:59:23;;;;;;;;;;;7.00;98.60;;;;;;5042094;28;19921;-59
2023/03/28 10:01:50;;;;;;;;;;;7.10;99.90;;;;;;5039327;28;19928;-60
2023/03/28 10:04:17;;;;;;;;;;;7.10;99.80;;;;;;5043131;28;20404;-59
2023/03/28 10:06:43;;;;;;;;;;;7.20;98.80;;;;;;5036973;28;20297;-59
2023/03/28 10:09:11;;;;;;;;;;;7.20;96.70;;;;;;5039339;28;20503;-59
2023/03/28 10:11:49;;;;;;;;;;;7.20;98.10;;;;;;5035995;28;20251;-59
2023/03/28 10:14:34;;;;;;;;;;;7.20;97.20;;;;;;5038257;28;19920;-60
2023/03/28 10:17:01;;;;;;;;;;;7.20;96.90;;;;;;5034579;28;20337;-59
2023/03/28 10:19:31;;;;;;;;;;;7.30;96.90;;;;;;5039217;28;20401;-59
2023/03/28 10:21:59;;;;;;;;;;;7.20;97.50;;;;;;5036090;28;19921;-59
2023/03/28 10:24:25;;;;;;;;;;;7.20;98.00;;;;;;5037793;28;19924;-59
2023/03/28 10:26:50;;;;;;;;;;;7.20;98.70;;;;;;5034210;28;19924;-59
2023/03/28 10:29:16;;;;;;;;;;;7.20;99.30;;;;;;5016693;28;19920;-59
2023/03/28 10:31:46;;;;;;;;;;;7.20;98.60;;;;;;5039871;28;19991;-59
2023/03/28 10:34:25;;;;;;;;;;;7.20;98.30;;;;;;5040766;28;19921;-60
2023/03/28 10:36:51;;;;;;;;;;;7.20;97.40;;;;;;5039212;28;19923;-59
2023/03/28 10:39:24;;;;;;;;;;;7.20;98.30;;;;;;5037987;28;20451;-58
2023/03/28 10:41:51;;;;;;;;;;;7.20;98.80;;;;;;5045535;28;20085;-60
2023/03/28 10:44:18;;;;;;;;;;;7.20;99.20;;;;;;5044596;28;20355;-59
2023/03/28 10:46:44;;;;;;;;;;;7.20;98.40;;;;;;5045233;28;19920;-59
2023/03/28 10:49:14;;;;;;;;;;;7.20;98.00;;;;;;5042178;28;19921;-58
2023/03/28 10:51:40;;;;;;;;;;;7.30;97.30;;;;;;5045242;28;19924;-59
2023/03/28 10:54:27;;;;;;;;;;;7.40;99.90;;;;;;5044306;28;20485;-60
2023/03/28 10:56:57;;;;;;;;;;;7.50;99.20;;;;;;5044470;28;19986;-59
2023/03/28 10:59:22;;;;;;;;;;;7.60;98.40;;;;;;5024012;28;19927;-59
2023/03/28 11:02:09;;;;;;;;;;;7.50;97.30;;;;;;5027218;28;19917;-60
2023/03/28 11:04:53;;;;;;;;;;;7.50;98.20;;;;;;5042565;28;19924;-59
2023/03/28 11:07:21;;;;;;;;;;;7.50;97.90;;;;;;5044319;28;19916;-58
2023/03/28 11:09:47;;;;;;;;;;;7.40;97.80;;;;;;5043599;28;19924;-59
2023/03/28 11:12:18;;;;;;;;;;;7.40;97.00;;;;;;5044148;28;19928;-58
2023/03/28 11:15:02;;;;;;;;;;;7.40;97.40;;;;;;5045000;28;19940;-59
2023/03/28 11:17:33;;;;;;;;;;;7.40;98.20;;;;;;5043261;28;19963;-59
2023/03/28 11:20:09;;;;;;;;;;;7.40;97.90;;;;;;5043982;28;19917;-60
2023/03/28 11:22:53;;;;;;;;;;;7.50;97.80;;;;;;5026446;28;20019;-60
2023/03/28 11:25:37;;;;;;;;;;;7.50;97.30;;;;;;5044773;28;20329;-59
2023/03/28 11:28:12;;;;;;;;;;;7.60;96.90;;;;;;5040886;28;19917;-59
2023/03/28 11:30:39;;;;;;;;;;;7.70;97.60;;;;;;5043847;28;20358;-60
2023/03/28 11:33:09;;;;;;;;;;;7.70;97.20;;;;;;5043635;28;19956;-60
2023/03/28 11:35:39;;;;;;;;;;;7.70;97.10;;;;;;5046953;28;19921;-60
2023/03/28 11:38:21;;;;;;;;;;;7.70;96.80;;;;;;5025065;28;19917;-59
2023/03/28 11:40:52;;;;;;;;;;;7.60;95.90;;;;;;5020709;28;20417;-59
2023/03/28 11:43:33;;;;;;;;;;;7.60;97.00;;;;;;5040115;28;19925;-60
2023/03/28 11:46:04;;;;;;;;;;;7.60;97.10;;;;;;5038294;28;20625;-60
2023/03/28 11:48:50;;;;;;;;;;;7.70;97.10;;;;;;5037598;28;19922;-59
2023/03/28 11:51:25;;;;;;;;;;;7.70;98.80;;;;;;5042855;28;20317;-60
2023/03/28 11:53:51;;;;;;;;;;;7.80;97.10;;;;;;5040184;28;19921;-59
2023/03/28 11:56:25;;;;;;;;;;;7.80;98.50;;;;;;5042818;28;19924;-60
2023/03/28 11:58:54;;;;;;;;;;;7.90;98.40;;;;;;5040058;28;19968;-60
2023/03/28 12:01:21;;;;;;;;;;;7.80;97.20;;;;;;5043219;28;19927;-60
2023/03/28 12:03:46;;;;;;;;;;;7.80;95.90;;;;;;5043930;28;19928;-59
2023/03/28 12:06:21;;;;;;;;;;;7.80;96.30;;;;;;5040575;28;19927;-60
2023/03/28 12:08:46;;;;;;;;;;;7.80;97.40;;;;;;5039336;28;19925;-59
2023/03/28 12:11:16;;;;;;;;;;;7.90;98.10;;;;;;5040490;28;19931;-60
2023/03/28 12:13:45;;;;;;;;;;;8.00;97.50;;;;;;5043059;28;20271;-59
2023/03/28 12:16:19;;;;;;;;;;;8.10;97.40;;;;;;5044194;28;20309;-58
2023/03/28 12:18:47;;;;;;;;;;;8.10;98.70;;;;;;5043157;28;19982;-59
2023/03/28 12:21:12;;;;;;;;;;;8.10;95.20;;;;;;5026763;28;20374;-59
2023/03/28 12:23:38;;;;;;;;;;;8.10;95.10;;;;;;5038620;28;19966;-59
2023/03/28 12:26:12;;;;;;;;;;;8.10;94.90;;;;;;5036172;28;20436;-60
2023/03/28 12:28:43;;;;;;;;;;;8.10;94.90;;;;;;5035372;28;19921;-60
2023/03/28 12:31:16;;;;;;;;;;;8.10;96.10;;;;;;5039136;28;19974;-58
2023/03/28 12:33:51;;;;;;;;;;;8.20;95.70;;;;;;5022097;28;19979;-60
2023/03/28 12:36:24;;;;;;;;;;;8.40;96.80;;;;;;5039911;28;19963;-58
2023/03/28 12:38:54;;;;;;;;;;;8.50;95.90;;;;;;5035744;28;19917;-59
2023/03/28 12:41:23;;;;;;;;;;;8.60;96.80;;;;;;5041080;28;19944;-59
2023/03/28 12:44:12;;;;;;;;;;;8.60;95.70;;;;;;5043138;28;20024;-58
2023/03/28 12:46:44;;;;;;;;;;;8.70;96.40;;;;;;5039732;28;20011;-58
2023/03/28 12:49:25;;;;;;;;;;;8.80;95.40;;;;;;5042195;28;20275;-59
2023/03/28 12:51:54;;;;;;;;;;;8.80;95.40;;;;;;5027016;28;19924;-59
2023/03/28 12:54:27;;;;;;;;;;;8.80;94.80;;;;;;5043106;28;19920;-59
2023/03/28 12:57:09;;;;;;;;;;;8.90;94.90;;;;;;5038387;28;19924;-59
2023/03/28 12:59:37;;;;;;;;;;;8.90;93.90;;;;;;5037588;28;20376;-59
2023/03/28 13:02:10;;;;;;;;;;;8.90;94.60;;;;;;5036245;28;20453;-59
2023/03/28 13:04:56;;;;;;;;;;;8.90;95.50;;;;;;5038158;28;19925;-60
2023/03/28 13:07:35;;;;;;;;;;;8.90;93.90;;;;;;5035136;28;20007;-58
2023/03/28 13:10:10;;;;;;;;;;;8.80;94.60;;;;;;5033578;28;19963;-59
2023/03/28 13:12:46;;;;;;;;;;;8.70;93.70;;;;;;5039823;28;19924;-60
2023/03/28 13:15:11;;;;;;;;;;;8.70;94.90;;;;;;5040140;28;19924;-58
2023/03/28 13:17:40;;;;;;;;;;;8.70;95.10;;;;;;5040291;28;19916;-60
2023/03/28 13:20:06;;;;;;;;;;;8.70;95.20;;;;;;5047183;28;19916;-59
2023/03/28 13:22:43;;;;;;;;;;;8.70;94.90;;;;;;5038697;28;19943;-59
2023/03/28 13:25:28;;;;;;;;;;;8.60;93.10;;;;;;5038974;28;19931;-59
2023/03/28 13:27:55;;;;;;;;;;;8.60;94.10;;;;;;5038524;28;20222;-58
2023/03/28 13:30:23;;;;;;;;;;;8.60;94.20;;;;;;5038036;28;19916;-60
2023/03/28 13:32:49;;;;;;;;;;;8.60;94.60;;;;;;5037738;28;19931;-59
2023/03/28 13:35:35;;;;;;;;;;;8.60;94.40;;;;;;5033498;28;20369;-59
2023/03/28 13:38:14;;;;;;;;;;;8.70;95.50;;;;;;5037285;28;19924;-58
2023/03/28 13:40:59;;;;;;;;;;;8.90;97.00;;;;;;5041239;28;19956;-59
2023/03/28 13:43:42;;;;;;;;;;;8.90;94.10;;;;;;5036984;28;20023;-59
2023/03/28 13:46:07;;;;;;;;;;;8.90;95.20;;;;;;5040341;28;19917;-58
2023/03/28 13:48:36;;;;;;;;;;;8.80;94.90;;;;;;5038288;28;19924;-59
2023/03/28 13:51:04;;;;;;;;;;;8.80;94.90;;;;;;5037784;28;20011;-59
2023/03/28 13:53:31;;;;;;;;;;;8.70;94.50;;;;;;5037301;28;19917;-59
2023/03/28 13:56:17;;;;;;;;;;;8.70;95.00;;;;;;5040345;28;19927;-59
2023/03/28 13:58:43;;;;;;;;;;;8.70;95.30;;;;;;5038909;28;19924;-60
2023/03/28 14:01:14;;;;;;;;;;;8.70;95.40;;;;;;5020564;28;20443;-59
2023/03/28 14:03:40;;;;;;;;;;;8.80;94.60;;;;;;5035479;28;20007;-59
2023/03/28 14:06:25;;;;;;;;;;;8.60;94.30;;;;;;5035613;28;20042;-58
2023/03/28 14:08:52;;;;;;;;;;;8.60;95.40;;;;;;5037758;28;19917;-59
2023/03/28 14:11:22;;;;;;;;;;;8.60;96.20;;;;;;5037388;28;19924;-60
2023/03/28 14:13:48;;;;;;;;;;;8.60;95.60;;;;;;5021699;28;20009;-59
2023/03/28 14:16:15;;;;;;;;;;;8.50;95.10;;;;;;5038020;28;19956;-59
2023/03/28 14:18:42;;;;;;;;;;;8.50;95.50;;;;;;5039875;28;19917;-59
2023/03/28 14:21:07;;;;;;;;;;;8.40;94.70;;;;;;5037938;28;20383;-59
2023/03/28 14:23:41;;;;;;;;;;;8.30;94.50;;;;;;5044395;28;20286;-60
2023/03/28 14:26:13;;;;;;;;;;;8.30;95.10;;;;;;5037830;28;19957;-59
2023/03/28 14:28:39;;;;;;;;;;;8.30;94.60;;;;;;5038550;28;20015;-60
2023/03/28 14:31:10;;;;;;;;;;;8.30;94.10;;;;;;5032597;28;19917;-59
2023/03/28 14:33:36;;;;;;;;;;;8.30;94.70;;;;;;5014914;28;19921;-58
2023/03/28 14:36:02;;;;;;;;;;;8.30;94.90;;;;;;5040080;28;19924;-59
2023/03/28 14:38:33;;;;;;;;;;;8.30;94.00;;;;;;5035230;28;19920;-56
2023/03/28 14:41:28;;;;;;;;;;;8.30;94.50;;;;;;5022976;28;19967;-55
2023/03/28 14:43:54;;;;;;;;;;;8.30;94.30;;;;;;5034310;28;19921;-57